Time;durP1;ratioP1;P1;durP2;ratioP2;P2;SDS_P1;SDS_P2;PMS_P1;PMS_P2;Temp;Humidity;BMP_temperature;BMP_pressure;BME280_temperature;BME280_humidity;BME280_pressure;Samples;Min_cycle;Max_cycle;Signal;HPM_P1;HPM_P2
2022/09/24 00:01:17;;;;;;;;;9.00;8.25;;;;;17.49;51.73;100544.00;4857777;29;46391;-75
2022/09/24 00:03:52;;;;;;;;;9.50;8.00;;;;;17.61;52.30;100566.63;4865644;29;45993;-75
2022/09/24 00:06:18;;;;;;;;;8.75;7.75;;;;;17.51;52.14;100547.34;4862374;29;46489;-74
2022/09/24 00:08:45;;;;;;;;;8.50;7.50;;;;;17.44;52.69;100548.94;4870066;29;46074;-75
2022/09/24 00:11:11;;;;;;;;;11.00;8.00;;;;;17.47;53.05;100553.09;4871752;29;47686;-75
2022/09/24 00:13:38;;;;;;;;;10.00;9.00;;;;;17.42;52.93;100556.22;4860435;29;46541;-76
2022/09/24 00:16:06;;;;;;;;;11.00;10.00;;;;;17.38;52.99;100544.25;4872398;29;46157;-76
2022/09/24 00:18:33;;;;;;;;;7.50;6.00;;;;;17.36;53.79;100540.09;4872119;29;45585;-74
2022/09/24 00:21:00;;;;;;;;;10.00;9.25;;;;;17.28;53.30;100534.72;4872414;29;46258;-74
2022/09/24 00:23:26;;;;;;;;;9.50;8.75;;;;;17.34;53.61;100542.91;4874100;29;46142;-76
2022/09/24 00:28:35;;;;;;;;;10.75;9.00;;;;;17.36;53.78;100542.75;4863343;29;45751;-74
2022/09/24 00:31:07;;;;;;;;;10.50;10.00;;;;;17.38;53.54;100535.50;4870318;29;47452;-76
2022/09/24 00:33:33;;;;;;;;;10.75;9.75;;;;;17.39;54.04;100534.47;4859229;29;46172;-75
2022/09/24 00:36:03;;;;;;;;;10.75;8.50;;;;;17.37;53.88;100526.72;4859469;29;45688;-75
2022/09/24 00:38:29;;;;;;;;;10.25;10.25;;;;;17.39;53.67;100535.31;4875188;29;45921;-74
2022/09/24 00:40:55;;;;;;;;;12.00;10.50;;;;;17.45;54.07;100540.00;4874485;29;45795;-75
2022/09/24 00:43:25;;;;;;;;;9.75;9.50;;;;;17.45;53.93;100533.88;4870837;29;45724;-75
2022/09/24 00:46:06;;;;;;;;;9.00;8.00;;;;;17.43;53.50;100534.06;4873429;29;45580;-75
2022/09/24 00:48:33;;;;;;;;;9.25;8.50;;;;;17.48;53.39;100537.06;4872035;29;45923;-75
2022/09/24 00:51:00;;;;;;;;;10.25;9.75;;;;;17.50;53.66;100535.06;4859150;29;46542;-74
2022/09/24 00:53:31;;;;;;;;;12.00;11.00;;;;;17.53;54.17;100537.44;4877590;29;46150;-75
2022/09/24 00:55:58;;;;;;;;;9.75;8.00;;;;;17.50;53.51;100528.94;4870836;29;46110;-75
2022/09/24 00:58:24;;;;;;;;;12.00;9.75;;;;;17.54;53.90;100535.63;4870538;29;45716;-75
2022/09/24 01:00:57;;;;;;;;;9.25;9.00;;;;;17.49;53.91;100519.34;4871128;29;46637;-77
2022/09/24 01:03:25;;;;;;;;;9.75;9.25;;;;;17.54;54.18;100530.31;4877343;29;46601;-76
2022/09/24 01:05:51;;;;;;;;;12.00;10.25;;;;;17.49;54.12;100524.66;4863841;29;45768;-76
2022/09/24 01:08:19;;;;;;;;;11.75;9.75;;;;;17.48;54.41;100525.63;4849743;29;45953;-75
2022/09/24 01:11:01;;;;;;;;;9.00;7.25;;;;;17.47;54.45;100531.91;4863687;29;47793;-76
2022/09/24 01:13:40;;;;;;;;;11.75;11.75;;;;;17.43;54.22;100534.06;4850256;29;47272;-74
2022/09/24 01:16:52;;;;;;;;;11.25;10.00;;;;;17.38;54.31;100533.66;4871924;29;45662;-75
2022/09/24 01:19:40;;;;;;;;;12.00;11.25;;;;;17.37;54.70;100524.06;4875501;29;45805;-75
2022/09/24 01:22:17;;;;;;;;;10.50;10.00;;;;;17.25;54.82;100509.41;4866315;29;47230;-75
2022/09/24 01:24:51;;;;;;;;;11.50;11.25;;;;;17.35;55.28;100528.69;4865266;29;45765;-74
2022/09/24 01:27:29;;;;;;;;;11.25;10.75;;;;;17.32;55.21;100523.72;4862563;29;46211;-74
2022/09/24 01:30:01;;;;;;;;;11.25;11.25;;;;;17.30;55.57;100523.00;4859755;29;45762;-76
2022/09/24 01:32:39;;;;;;;;;10.50;10.00;;;;;17.29;55.65;100520.50;4874828;28;46554;-76
2022/09/24 01:35:20;;;;;;;;;12.00;11.50;;;;;17.25;56.18;100511.22;4867009;29;47455;-76
2022/09/24 01:37:53;;;;;;;;;11.00;10.50;;;;;17.23;56.67;100515.81;4864999;29;46230;-75
2022/09/24 01:40:21;;;;;;;;;11.75;10.25;;;;;17.15;56.67;100511.31;4868865;29;45994;-76
2022/09/24 01:42:49;;;;;;;;;10.75;10.00;;;;;17.15;56.76;100506.84;4865357;29;47506;-76
2022/09/24 01:45:16;;;;;;;;;13.50;9.00;;;;;17.12;56.27;100507.16;4872046;29;46363;-74
2022/09/24 01:47:42;;;;;;;;;9.75;8.75;;;;;17.13;56.96;100506.16;4850589;29;45914;-76
2022/09/24 01:50:10;;;;;;;;;13.75;12.25;;;;;17.18;57.35;100503.88;4872154;29;45879;-76
2022/09/24 01:53:01;;;;;;;;;12.00;10.50;;;;;17.15;57.41;100500.72;4870687;29;46472;-78
2022/09/24 01:55:33;;;;;;;;;16.25;13.00;;;;;17.17;57.42;100507.53;4854666;29;46725;-77
2022/09/24 01:58:05;;;;;;;;;10.50;10.50;;;;;17.12;57.33;100493.06;4857913;29;45903;-76
2022/09/24 02:00:31;;;;;;;;;12.00;10.00;;;;;17.07;57.80;100493.53;4868828;29;45654;-75
2022/09/24 02:02:59;;;;;;;;;14.00;12.75;;;;;17.10;57.84;100490.59;4874423;29;47345;-75
2022/09/24 02:05:29;;;;;;;;;13.00;11.00;;;;;17.10;57.61;100492.41;4874031;29;46246;-74
2022/09/24 02:08:04;;;;;;;;;13.50;11.00;;;;;17.08;57.61;100486.44;4862726;29;45919;-76
2022/09/24 02:10:36;;;;;;;;;11.00;10.25;;;;;17.09;57.66;100485.47;4859111;29;45769;-76
2022/09/24 02:13:06;;;;;;;;;15.50;13.75;;;;;17.04;58.25;100469.22;4860923;29;47634;-76
2022/09/24 02:15:36;;;;;;;;;14.75;11.00;;;;;17.05;57.65;100463.78;4846949;29;47235;-76
2022/09/24 02:18:12;;;;;;;;;11.00;11.00;;;;;17.00;57.30;100458.09;4852864;29;45795;-76
2022/09/24 02:20:41;;;;;;;;;14.00;11.75;;;;;17.11;57.25;100475.56;4870723;29;45698;-74
2022/09/24 02:23:10;;;;;;;;;12.25;11.00;;;;;17.07;57.85;100460.94;4873674;29;46323;-76
2022/09/24 02:25:57;;;;;;;;;11.00;10.25;;;;;17.11;57.54;100470.25;4858730;29;46220;-73
2022/09/24 02:28:23;;;;;;;;;12.75;10.50;;;;;17.14;57.80;100467.28;4864305;29;45719;-75
2022/09/24 02:30:59;;;;;;;;;12.00;11.00;;;;;17.14;57.47;100456.69;4870652;29;45680;-75
2022/09/24 02:36:11;;;;;;;;;12.50;10.50;;;;;17.21;57.68;100457.75;4858031;29;45620;-74
2022/09/24 02:38:37;;;;;;;;;9.25;9.25;;;;;17.22;57.32;100463.88;4871264;29;45801;-75
2022/09/24 02:41:06;;;;;;;;;9.25;9.00;;;;;17.24;57.47;100460.06;4847738;29;45947;-76
2022/09/24 02:43:33;;;;;;;;;10.75;10.25;;;;;17.27;57.93;100458.94;4875483;29;46612;-76
2022/09/24 02:45:58;;;;;;;;;11.00;11.00;;;;;17.28;57.93;100453.47;4865225;29;45576;-76
2022/09/24 02:48:23;;;;;;;;;9.50;8.75;;;;;17.31;57.81;100452.34;4841206;29;45842;-75
2022/09/24 02:50:49;;;;;;;;;8.00;8.00;;;;;17.33;57.44;100458.31;4868888;29;45810;-75
2022/09/24 02:53:14;;;;;;;;;11.25;10.75;;;;;17.35;57.39;100451.03;4871067;29;46473;-76
2022/09/24 02:55:40;;;;;;;;;9.75;8.50;;;;;17.32;57.71;100438.13;4867749;29;46925;-76
2022/09/24 02:58:06;;;;;;;;;10.50;10.00;;;;;17.37;57.50;100441.97;4859069;29;45713;-75
2022/09/24 03:00:31;;;;;;;;;10.50;9.00;;;;;17.32;57.28;100422.22;4874407;29;45778;-75
2022/09/24 03:02:56;;;;;;;;;8.75;8.00;;;;;17.46;57.38;100445.47;4879430;29;46281;-76
2022/09/24 03:05:22;;;;;;;;;10.00;8.25;;;;;17.48;57.81;100446.16;4868373;29;46040;-74
2022/09/24 03:07:47;;;;;;;;;13.00;9.25;;;;;17.48;57.74;100441.69;4864776;29;45942;-74
2022/09/24 03:10:14;;;;;;;;;10.25;10.25;;;;;17.47;57.91;100441.84;4869315;29;45616;-74
2022/09/24 03:12:40;;;;;;;;;7.25;7.25;;;;;17.47;57.67;100444.50;4857615;29;47305;-75
2022/09/24 03:15:05;;;;;;;;;6.00;6.00;;;;;17.46;57.90;100437.53;4876521;29;46297;-74
2022/09/24 03:17:31;;;;;;;;;10.75;9.75;;;;;17.36;57.61;100423.56;4878395;29;45657;-75
2022/09/24 03:19:56;;;;;;;;;11.00;9.00;;;;;17.42;57.65;100438.84;4867765;29;46194;-75
2022/09/24 03:22:21;;;;;;;;;11.25;10.50;;;;;17.32;57.68;100423.06;4877151;29;46479;-74
2022/09/24 03:24:47;;;;;;;;;8.75;8.50;;;;;17.36;57.31;100434.16;4867792;29;46171;-75
2022/09/24 03:27:15;;;;;;;;;11.25;10.00;;;;;17.27;57.77;100430.66;4877288;29;45688;-76
2022/09/24 03:32:25;;;;;;;;;11.00;9.75;;;;;17.19;58.30;100436.72;4860426;29;45590;-76
2022/09/24 03:34:50;;;;;;;;;9.00;8.25;;;;;17.13;58.14;100437.34;4875119;29;46154;-76
2022/09/24 03:37:16;;;;;;;;;10.25;9.75;;;;;17.03;58.52;100423.38;4872003;29;45615;-74
2022/09/24 03:39:41;;;;;;;;;10.00;8.75;;;;;17.05;59.09;100428.53;4867113;29;45728;-74
2022/09/24 03:42:06;;;;;;;;;11.75;10.50;;;;;17.00;59.03;100428.16;4871950;29;46252;-77
2022/09/24 03:44:31;;;;;;;;;9.25;8.25;;;;;16.84;59.06;100417.44;4860369;29;46376;-75
2022/09/24 03:46:57;;;;;;;;;9.75;9.75;;;;;16.85;59.59;100429.66;4878967;29;45842;-76
2022/09/24 03:49:23;;;;;;;;;11.00;9.25;;;;;16.79;59.43;100424.00;4878279;29;46193;-75
2022/09/24 03:51:49;;;;;;;;;5.25;5.25;;;;;16.75;59.97;100430.59;4863915;29;47447;-75
2022/09/24 03:54:15;;;;;;;;;8.50;8.00;;;;;16.71;59.41;100426.59;4872459;29;46394;-75
2022/09/24 03:56:41;;;;;;;;;9.50;6.25;;;;;16.70;59.95;100421.47;4883206;29;45626;-74
2022/09/24 03:59:09;;;;;;;;;13.50;11.50;;;;;16.69;59.89;100420.63;4866349;29;45849;-75
2022/09/24 04:01:36;;;;;;;;;12.50;9.00;;;;;16.70;60.15;100419.66;4871640;29;47415;-74
2022/09/24 04:04:02;;;;;;;;;9.00;7.00;;;;;16.69;59.75;100415.34;4874007;29;46320;-75
2022/09/24 04:06:28;;;;;;;;;10.75;10.25;;;;;16.64;59.95;100414.97;4872432;29;45638;-75
2022/09/24 04:08:54;;;;;;;;;10.75;9.75;;;;;16.57;60.24;100408.56;4871216;29;45516;-78
2022/09/24 04:11:20;;;;;;;;;10.50;10.00;;;;;16.56;60.03;100406.09;4861017;29;46007;-76
2022/09/24 04:13:45;;;;;;;;;11.00;10.00;;;;;16.47;60.32;100397.25;4877173;29;46261;-76
2022/09/24 04:16:11;;;;;;;;;12.50;12.25;;;;;16.56;60.27;100411.41;4866202;29;46020;-76
2022/09/24 04:18:36;;;;;;;;;10.75;10.50;;;;;16.53;60.33;100423.09;4866714;29;45972;-76
2022/09/24 04:21:01;;;;;;;;;8.25;8.25;;;;;16.47;60.69;100418.41;4877646;29;47305;-74
2022/09/24 04:23:27;;;;;;;;;11.75;11.00;;;;;16.40;61.11;100412.09;4865798;29;47144;-77
2022/09/24 04:25:53;;;;;;;;;9.00;8.25;;;;;16.44;61.30;100420.53;4877747;29;46304;-74
2022/09/24 04:28:18;;;;;;;;;11.75;10.50;;;;;16.35;61.78;100407.25;4878398;29;45822;-75
2022/09/24 04:30:44;;;;;;;;;12.50;11.00;;;;;16.39;61.74;100413.06;4872760;29;46358;-76
2022/09/24 04:33:09;;;;;;;;;9.00;8.25;;;;;16.37;61.74;100413.19;4867505;29;46114;-75
2022/09/24 04:35:35;;;;;;;;;12.50;11.75;;;;;16.27;61.99;100404.50;4859552;29;45599;-74
2022/09/24 04:38:01;;;;;;;;;13.75;13.00;;;;;16.30;61.69;100413.97;4869408;29;45883;-76
2022/09/24 04:40:27;;;;;;;;;10.25;8.75;;;;;16.30;61.90;100417.41;4867811;29;46912;-76
2022/09/24 04:42:52;;;;;;;;;14.00;13.00;;;;;16.27;61.99;100408.97;4853329;29;47130;-76
2022/09/24 04:45:19;;;;;;;;;11.25;10.75;;;;;16.19;62.12;100406.25;4872069;29;45713;-76
2022/09/24 04:47:54;;;;;;;;;13.00;11.75;;;;;16.17;61.85;100402.94;4866024;29;45713;-76
2022/09/24 04:50:20;;;;;;;;;14.50;11.25;;;;;16.18;61.91;100410.72;4866756;29;47382;-76
2022/09/24 04:52:45;;;;;;;;;10.00;10.00;;;;;16.16;62.31;100409.19;4876683;29;46919;-75
2022/09/24 04:55:11;;;;;;;;;15.00;12.75;;;;;16.16;62.22;100412.66;4858642;29;45845;-75
2022/09/24 04:57:36;;;;;;;;;13.75;13.00;;;;;16.18;62.41;100425.75;4865304;29;46056;-75
2022/09/24 05:00:10;;;;;;;;;9.50;8.75;;;;;16.18;62.67;100418.66;4871526;29;45745;-76
2022/09/24 05:02:35;;;;;;;;;12.00;9.50;;;;;16.14;62.42;100411.97;4861649;29;46082;-76
2022/09/24 05:05:01;;;;;;;;;12.25;10.50;;;;;16.12;62.39;100419.25;4883617;29;46067;-76
2022/09/24 05:07:27;;;;;;;;;11.75;11.25;;;;;16.06;62.68;100419.00;4863771;29;45816;-76
2022/09/24 05:09:52;;;;;;;;;12.50;9.75;;;;;16.07;62.55;100423.31;4870416;29;46351;-75
2022/09/24 05:12:19;;;;;;;;;11.00;10.00;;;;;16.07;62.72;100425.94;4873045;29;46491;-75
2022/09/24 05:14:44;;;;;;;;;11.00;11.00;;;;;16.10;62.19;100428.28;4853493;29;45980;-76
2022/09/24 05:17:10;;;;;;;;;11.50;10.00;;;;;16.12;62.41;100428.97;4877680;29;45822;-74
2022/09/24 05:19:35;;;;;;;;;11.00;10.00;;;;;16.17;62.42;100427.56;4870713;29;46256;-75
2022/09/24 05:22:00;;;;;;;;;11.25;9.00;;;;;16.19;62.30;100428.25;4871299;29;46137;-75
2022/09/24 05:24:26;;;;;;;;;12.50;9.75;;;;;16.24;62.06;100428.63;4864518;29;45649;-77
2022/09/24 05:27:09;;;;;;;;;9.00;9.00;;;;;16.27;61.96;100433.59;4864856;29;45656;-76
2022/09/24 05:29:38;;;;;;;;;8.50;7.00;;;;;16.32;61.76;100441.06;4851306;29;47632;-76
2022/09/24 05:32:10;;;;;;;;;9.00;8.00;;;;;16.38;61.63;100436.03;4871729;29;46219;-76
2022/09/24 05:34:36;;;;;;;;;12.75;9.75;;;;;16.44;61.67;100433.75;4864508;29;45680;-76
2022/09/24 05:37:02;;;;;;;;;7.75;7.00;;;;;16.48;61.32;100446.53;4862807;29;45682;-77
2022/09/24 05:39:28;;;;;;;;;10.75;10.00;;;;;16.51;61.37;100445.41;4858940;29;47719;-75
2022/09/24 05:41:55;;;;;;;;;9.75;9.00;;;;;16.50;61.47;100438.44;4871663;29;47038;-71
2022/09/24 05:44:20;;;;;;;;;10.50;9.50;;;;;16.55;61.57;100447.59;4871460;29;45884;-75
2022/09/24 05:46:50;;;;;;;;;12.50;11.00;;;;;16.54;61.40;100440.63;4856256;29;46052;-75
2022/09/24 05:49:16;;;;;;;;;9.25;9.25;;;;;16.55;61.61;100441.47;4877082;29;46733;-75
2022/09/24 05:51:42;;;;;;;;;10.25;9.75;;;;;16.45;62.01;100430.13;4856496;29;46642;-75
2022/09/24 05:54:10;;;;;;;;;11.00;9.75;;;;;16.48;61.40;100438.59;4870865;29;45726;-73
2022/09/24 05:56:37;;;;;;;;;8.75;8.00;;;;;16.30;61.92;100414.78;4870830;29;45739;-75
2022/09/24 05:59:02;;;;;;;;;11.25;9.00;;;;;16.47;61.75;100450.16;4865529;29;46339;-75
2022/09/24 06:01:31;;;;;;;;;11.25;10.00;;;;;16.47;61.76;100449.31;4874174;29;45891;-73
2022/09/24 06:03:57;;;;;;;;;11.50;10.75;;;;;16.42;62.06;100435.72;4857071;29;45795;-74
2022/09/24 06:06:24;;;;;;;;;11.75;10.25;;;;;16.43;61.92;100445.31;4864105;29;45719;-74
2022/09/24 06:08:49;;;;;;;;;9.25;8.75;;;;;16.51;61.88;100454.19;4875170;29;46644;-75
2022/09/24 06:11:15;;;;;;;;;11.50;10.00;;;;;16.53;61.88;100456.66;4841976;29;46316;-74
2022/09/24 06:13:40;;;;;;;;;12.50;10.50;;;;;16.49;62.09;100450.00;4858554;29;45728;-75
2022/09/24 06:16:08;;;;;;;;;14.75;11.00;;;;;16.54;62.23;100459.16;4875307;29;45729;-74
2022/09/24 06:18:35;;;;;;;;;13.00;13.00;;;;;16.54;62.00;100456.50;4876171;29;46507;-74
2022/09/24 06:21:02;;;;;;;;;13.25;13.25;;;;;16.51;62.28;100454.19;4870715;29;46076;-76
2022/09/24 06:23:29;;;;;;;;;13.25;10.00;;;;;16.59;62.01;100467.50;4869716;29;45599;-75
2022/09/24 06:25:55;;;;;;;;;13.00;11.50;;;;;16.48;62.08;100457.09;4873868;29;45895;-76
2022/09/24 06:28:20;;;;;;;;;11.50;10.50;;;;;16.48;62.53;100449.16;4863246;29;45731;-77
2022/09/24 06:30:46;;;;;;;;;14.25;11.75;;;;;16.57;62.71;100469.41;4858056;29;48108;-75
2022/09/24 06:33:13;;;;;;;;;12.25;9.50;;;;;16.60;62.58;100473.63;4873848;29;46107;-74
2022/09/24 06:35:41;;;;;;;;;13.25;8.75;;;;;16.58;62.80;100473.72;4872505;29;45754;-77
2022/09/24 06:38:13;;;;;;;;;64.00;48.75;;;;;16.56;62.39;100473.06;4860501;29;47260;-75
2022/09/24 06:40:39;;;;;;;;;22.75;19.75;;;;;16.54;62.40;100469.72;4858546;29;47666;-74
2022/09/24 06:43:06;;;;;;;;;12.50;10.00;;;;;16.54;62.30;100468.91;4862162;29;45754;-73
2022/09/24 06:45:32;;;;;;;;;11.25;8.50;;;;;16.53;62.42;100467.22;4865148;29;45554;-76
2022/09/24 06:47:59;;;;;;;;;9.50;9.25;;;;;16.61;62.21;100475.28;4863528;29;46527;-72
2022/09/24 06:50:27;;;;;;;;;16.25;14.00;;;;;16.63;62.42;100476.78;4876586;29;46128;-80
2022/09/24 06:52:54;;;;;;;;;10.75;8.00;;;;;16.63;61.93;100473.31;4863595;29;45870;-79
2022/09/24 06:55:20;;;;;;;;;15.75;15.00;;;;;16.70;61.81;100485.78;4859416;29;45639;-76
2022/09/24 06:57:45;;;;;;;;;14.25;11.25;;;;;16.73;61.70;100479.38;4875824;29;45624;-78
2022/09/24 07:00:12;;;;;;;;;19.25;17.25;;;;;16.75;61.70;100483.50;4876265;29;46594;-78
2022/09/24 07:02:38;;;;;;;;;4.75;4.25;;;;;16.78;61.90;100488.53;4875834;29;45898;-75
2022/09/24 07:05:04;;;;;;;;;10.00;8.00;;;;;16.75;61.20;100478.22;4860173;29;45823;-79
2022/09/24 07:07:31;;;;;;;;;13.25;11.50;;;;;16.84;61.43;100488.91;4861745;29;46478;-80
2022/09/24 07:10:00;;;;;;;;;7.00;6.00;;;;;16.84;61.76;100486.25;4851672;29;46301;-77
2022/09/24 07:12:27;;;;;;;;;11.50;10.75;;;;;16.88;61.66;100485.78;4858325;29;46485;-79
2022/09/24 07:14:52;;;;;;;;;18.75;15.75;;;;;16.90;61.51;100482.97;4853573;29;45940;-78
2022/09/24 07:17:18;;;;;;;;;9.25;7.00;;;;;16.91;61.72;100485.47;4861546;29;46172;-78
2022/09/24 07:19:43;;;;;;;;;11.00;10.50;;;;;16.93;61.61;100483.50;4861583;29;47387;-76
2022/09/24 07:22:09;;;;;;;;;22.75;18.50;;;;;16.95;61.32;100491.31;4846620;29;45726;-79
2022/09/24 07:24:34;;;;;;;;;27.25;20.75;;;;;16.97;61.32;100499.91;4875855;29;45755;-83
2022/09/24 07:26:59;;;;;;;;;8.00;7.25;;;;;16.96;61.32;100483.19;4867026;29;45657;-83
2022/09/24 07:29:25;;;;;;;;;23.00;20.00;;;;;17.02;61.49;100498.47;4868704;29;46320;-84
2022/09/24 07:31:50;;;;;;;;;7.00;7.00;;;;;17.01;61.28;100496.78;4869280;29;45769;-77
2022/09/24 07:34:16;;;;;;;;;10.25;8.75;;;;;17.06;61.18;100504.28;4845360;29;45768;-78
2022/09/24 07:36:41;;;;;;;;;7.00;7.00;;;;;17.03;61.18;100491.34;4875566;29;45992;-77
2022/09/24 07:39:07;;;;;;;;;6.75;5.75;;;;;17.09;61.18;100498.69;4875548;29;47340;-76
2022/09/24 07:41:33;;;;;;;;;8.75;7.50;;;;;17.08;61.04;100503.16;4874112;29;45709;-79
2022/09/24 07:43:58;;;;;;;;;9.00;8.00;;;;;17.13;61.21;100506.16;4864736;29;45751;-77
2022/09/24 07:46:24;;;;;;;;;11.25;10.50;;;;;17.14;61.10;100504.34;4873703;29;45673;-77
2022/09/24 07:48:53;;;;;;;;;11.25;10.00;;;;;17.18;61.21;100505.69;4855120;29;47025;-77
2022/09/24 07:51:18;;;;;;;;;6.75;5.50;;;;;17.20;61.01;100514.34;4876218;29;45896;-79
2022/09/24 07:53:43;;;;;;;;;9.75;8.25;;;;;17.07;61.34;100490.91;4867595;29;45962;-78
2022/09/24 07:56:09;;;;;;;;;9.50;7.75;;;;;17.23;61.17;100505.25;4878397;29;45627;-77
2022/09/24 07:58:35;;;;;;;;;7.50;7.25;;;;;17.26;61.08;100515.53;4870475;29;46880;-75
2022/09/24 08:01:00;;;;;;;;;9.50;7.50;;;;;17.27;61.15;100522.50;4875638;29;46228;-77
2022/09/24 08:03:26;;;;;;;;;9.25;8.00;;;;;17.29;61.07;100520.50;4870285;29;45773;-77
2022/09/24 08:05:56;;;;;;;;;7.75;7.00;;;;;17.31;61.51;100521.19;4867403;29;46719;-76
2022/09/24 08:08:21;;;;;;;;;8.00;6.75;;;;;17.32;61.17;100523.72;4859663;29;46379;-77
2022/09/24 08:10:47;;;;;;;;;8.00;7.75;;;;;17.28;61.27;100513.53;4863239;29;45962;-77
2022/09/24 08:13:13;;;;;;;;;8.50;7.00;;;;;17.34;61.36;100527.00;4866324;29;45732;-77
2022/09/24 08:15:39;;;;;;;;;6.50;6.00;;;;;17.35;61.07;100525.19;4864750;29;47348;-75
2022/09/24 08:18:04;;;;;;;;;16.50;14.75;;;;;17.35;61.12;100523.38;4859724;29;45966;-72
2022/09/24 08:20:31;;;;;;;;;9.75;8.75;;;;;17.37;61.11;100525.88;4860821;29;46374;-74
2022/09/24 08:23:05;;;;;;;;;1.50;0.00;;;;;17.41;61.05;100527.22;4860151;29;46777;-74
2022/09/24 08:25:31;;;;;;;;;13.00;10.25;;;;;17.38;60.77;100525.72;4858561;29;47347;-70
2022/09/24 08:28:04;;;;;;;;;7.25;6.00;;;;;17.44;61.19;100538.34;4859263;29;47443;-76
2022/09/24 08:30:29;;;;;;;;;13.00;11.25;;;;;17.46;61.15;100532.91;4861345;29;45854;-75
2022/09/24 08:32:56;;;;;;;;;7.50;6.00;;;;;17.48;61.10;100530.94;4856304;29;46143;-72
2022/09/24 08:35:21;;;;;;;;;12.00;12.00;;;;;17.48;61.52;100537.06;4857591;29;47100;-72
2022/09/24 08:37:47;;;;;;;;;6.75;6.75;;;;;17.51;60.95;100541.19;4857505;29;46244;-72
2022/09/24 08:40:21;;;;;;;;;9.00;9.00;;;;;17.48;61.36;100537.06;4843804;29;46528;-75
2022/09/24 08:43:14;;;;;;;;;12.75;12.00;;;;;17.53;61.29;100540.06;4858245;29;46285;-73
2022/09/24 08:48:38;;;;;;;;;9.00;8.00;;;;;17.56;61.29;100549.50;4860858;29;46215;-75
2022/09/24 08:51:11;;;;;;;;;21.75;19.00;;;;;17.55;61.11;100545.19;4845710;29;46025;-74
2022/09/24 08:54:01;;;;;;;;;21.75;21.25;;;;;17.57;61.15;100545.88;4856923;29;47645;-74
2022/09/24 08:56:34;;;;;;;;;13.50;11.50;;;;;17.56;61.26;100539.75;4857387;29;48516;-74
2022/09/24 08:59:37;;;;;;;;;8.00;7.75;;;;;17.57;61.22;100546.72;4865712;29;46072;-75
2022/09/24 09:02:03;;;;;;;;;10.00;8.75;;;;;17.60;61.17;100548.25;4859018;29;47595;-75
2022/09/24 09:04:57;;;;;;;;;8.50;8.50;;;;;17.63;61.20;100549.75;4857284;29;45866;-72
2022/09/24 09:07:29;;;;;;;;;9.25;9.25;;;;;17.66;61.37;100552.09;4857836;29;46407;-74
2022/09/24 09:10:03;;;;;;;;;9.00;8.00;;;;;17.70;60.87;100556.13;4857920;29;46501;-74
2022/09/24 09:12:35;;;;;;;;;10.75;10.25;;;;;17.72;61.39;100554.13;4842735;29;46099;-79
2022/09/24 09:15:08;;;;;;;;;9.00;8.50;;;;;17.77;61.10;100557.13;4857098;29;47077;-79
2022/09/24 09:17:59;;;;;;;;;13.75;11.75;;;;;17.80;60.94;100551.53;4862291;29;46442;-78
2022/09/24 09:20:31;;;;;;;;;10.50;9.00;;;;;17.81;61.17;100555.84;4855175;29;46491;-77
2022/09/24 09:23:03;;;;;;;;;9.50;9.00;;;;;17.76;61.05;100543.03;4863199;29;45800;-77
2022/09/24 09:25:35;;;;;;;;;12.00;11.50;;;;;17.84;60.84;100548.41;4848611;29;45798;-76
2022/09/24 09:28:13;;;;;;;;;13.50;11.00;;;;;17.85;61.09;100550.06;4859233;29;46465;-76
2022/09/24 09:31:02;;;;;;;;;9.75;9.25;;;;;17.86;60.50;100556.22;4860044;29;46371;-74
2022/09/24 09:33:34;;;;;;;;;20.00;18.25;;;;;17.91;61.04;100553.91;4854395;29;45753;-76
2022/09/24 09:36:19;;;;;;;;;11.75;10.50;;;;;17.92;60.98;100552.94;4858982;29;45749;-76
2022/09/24 09:38:54;;;;;;;;;9.50;9.25;;;;;17.94;60.85;100557.06;4876113;29;46521;-76
2022/09/24 09:41:49;;;;;;;;;11.50;11.50;;;;;17.96;60.58;100547.16;4874505;29;45881;-74
2022/09/24 09:44:24;;;;;;;;;11.75;10.75;;;;;17.99;60.09;100556.59;4810969;29;45824;-75
2022/09/24 09:47:04;;;;;;;;;22.50;17.75;;;;;18.02;60.42;100551.81;4819203;29;45738;-77
2022/09/24 09:49:37;;;;;;;;;13.50;12.25;;;;;18.06;60.41;100562.09;4803239;29;47467;-74
2022/09/24 09:52:13;;;;;;;;;15.75;13.00;;;;;18.11;60.24;100558.00;4819291;29;46104;-72
2022/09/24 09:54:40;;;;;;;;;13.25;12.50;;;;;18.15;60.11;100556.69;4818293;29;46037;-75
2022/09/24 09:57:13;;;;;;;;;11.00;10.25;;;;;18.15;60.04;100556.69;4803153;29;46119;-72
2022/09/24 09:59:39;;;;;;;;;11.50;9.00;;;;;18.16;60.33;100550.38;4817382;29;46585;-74
2022/09/24 10:02:10;;;;;;;;;9.75;9.50;;;;;18.12;60.30;100549.06;4804548;29;46519;-73
2022/09/24 10:04:39;;;;;;;;;10.00;8.75;;;;;18.15;60.02;100547.88;4800365;29;47304;-76
2022/09/24 10:07:13;;;;;;;;;11.00;10.00;;;;;18.19;59.66;100554.56;4803246;29;45828;-75
2022/09/24 10:09:41;;;;;;;;;11.50;10.25;;;;;18.22;59.76;100554.22;4800980;29;48285;-76
2022/09/24 10:12:21;;;;;;;;;24.25;19.25;;;;;18.24;59.65;100560.22;4818358;29;46274;-75
2022/09/24 10:14:59;;;;;;;;;64.25;48.00;;;;;18.26;59.25;100553.75;4815771;29;45705;-78
2022/09/24 10:17:32;;;;;;;;;18.50;18.00;;;;;18.26;59.96;100553.75;4819171;29;45611;-76
2022/09/24 10:19:59;;;;;;;;;13.25;12.25;;;;;18.24;59.61;100550.44;4814622;29;47861;-74
2022/09/24 10:22:27;;;;;;;;;14.00;12.00;;;;;18.26;59.19;100551.09;4875828;29;46307;-76
2022/09/24 10:24:56;;;;;;;;;16.75;14.75;;;;;18.31;59.59;100555.91;4852529;29;45938;-75
2022/09/24 10:27:36;;;;;;;;;21.25;20.50;;;;;18.33;59.38;100559.25;4871957;29;45644;-75
2022/09/24 10:33:04;;;;;;;;;14.50;14.25;;;;;18.30;59.21;100560.38;4864173;29;46032;-75
2022/09/24 10:35:37;;;;;;;;;14.50;13.25;;;;;18.26;59.64;100553.75;4874057;29;45826;-77
2022/09/24 10:38:23;;;;;;;;;13.75;13.00;;;;;18.22;59.72;100551.56;4855455;29;47359;-77
2022/09/24 10:40:49;;;;;;;;;14.75;13.50;;;;;18.10;59.46;100542.22;4872155;29;47553;-74
2022/09/24 10:43:20;;;;;;;;;14.00;12.75;;;;;18.17;59.49;100557.34;4858745;29;46313;-74
2022/09/24 10:46:13;;;;;;;;;17.75;15.50;;;;;18.21;59.24;100561.34;4852730;29;45834;-76
2022/09/24 10:48:49;;;;;;;;;14.25;13.00;;;;;18.24;59.55;100552.25;4856192;29;45926;-75
2022/09/24 10:51:22;;;;;;;;;14.75;14.00;;;;;18.28;59.23;100558.88;4871834;29;47748;-75
2022/09/24 10:54:14;;;;;;;;;15.25;12.50;;;;;18.36;58.71;100554.44;4864994;29;47174;-77
2022/09/24 10:56:50;;;;;;;;;15.75;13.75;;;;;18.29;58.82;100534.88;4822142;29;45605;-76
2022/09/24 10:59:46;;;;;;;;;14.50;13.25;;;;;18.51;58.25;100559.97;4815277;29;46119;-76
2022/09/24 11:02:11;;;;;;;;;16.50;14.00;;;;;18.57;57.95;100555.88;4813674;29;46416;-75
2022/09/24 11:04:49;;;;;;;;;18.00;15.00;;;;;18.63;58.00;100556.03;4815598;29;45997;-76
2022/09/24 11:07:54;;;;;;;;;17.25;17.25;;;;;18.71;58.05;100555.25;4822004;29;46865;-75
2022/09/24 11:10:38;;;;;;;;;16.00;15.25;;;;;18.79;57.89;100560.56;4815340;29;46005;-75
2022/09/24 11:13:28;;;;;;;;;16.25;15.00;;;;;18.85;57.88;100557.25;4816341;29;47401;-76
2022/09/24 11:16:24;;;;;;;;;17.50;17.25;;;;;18.88;57.42;100556.94;4817885;29;46232;-75
2022/09/24 11:19:06;;;;;;;;;16.00;14.75;;;;;18.90;57.38;100560.25;4814362;29;45885;-74
2022/09/24 11:21:59;;;;;;;;;17.25;16.00;;;;;18.91;57.46;100559.25;4811756;29;45958;-74
2022/09/24 11:24:36;;;;;;;;;18.75;17.50;;;;;18.95;57.42;100563.22;4810427;29;46560;-75
2022/09/24 11:27:52;;;;;;;;;16.75;14.50;;;;;19.00;57.26;100560.91;4822511;29;47170;-74
2022/09/24 11:30:26;;;;;;;;;16.75;14.75;;;;;19.05;56.97;100555.97;4748384;29;46000;-74
2022/09/24 11:32:57;;;;;;;;;18.75;17.75;;;;;19.09;57.07;100553.81;4815053;29;45603;-74
2022/09/24 11:35:46;;;;;;;;;16.75;15.00;;;;;19.07;56.91;100540.69;4876087;29;46009;-75
2022/09/24 11:38:18;;;;;;;;;16.00;15.50;;;;;19.08;56.78;100534.38;4877806;29;46768;-75
2022/09/24 11:40:44;;;;;;;;;15.50;14.25;;;;;19.23;56.73;100548.66;4875272;29;45861;-76
2022/09/24 11:43:32;;;;;;;;;17.33;16.33;;;;;19.26;56.38;100553.66;4875633;29;45669;-75